Air Navigation Services of Czech Republic
Airport: LKKB Updated:  01.04.2020 00:30:27  UTC
 METAR LKKB 01.04. 00:30 ...
METAR LKKB 010030Z 14001KT CAVOK M04/M07 Q1025 RMK BLU=
 TAF LKKB 31.03. 23:00 ...
TAF LKKB 312300Z 0100/0200 VRB02KT CAVOK      BECMG 0110/0112 21006KT      BECMG 0116/0118 VRB02KT=